Time;durP1;ratioP1;P1;durP2;ratioP2;P2;SDS_P1;SDS_P2;PMS_P1;PMS_P2;Temp;Humidity;BMP_temperature;BMP_pressure;BME280_temperature;BME280_humidity;BME280_pressure;Samples;Min_cycle;Max_cycle;Signal;HPM_P1;HPM_P2
2023/02/16 00:00:18;;;;;;;47.00;24.50;;;;;;;1.46;67.75;100060.92;105417;1256;97096;-70
2023/02/16 00:03:14;;;;;;;45.50;24.80;;;;;;;1.47;67.95;100058.62;105196;1261;112994;-70
2023/02/16 00:05:43;;;;;;;44.50;22.50;;;;;;;1.47;67.64;100058.63;105258;1255;100742;-69
2023/02/16 00:08:11;;;;;;;51.40;25.80;;;;;;;1.45;67.71;100056.39;105357;1257;107329;-70
2023/02/16 00:10:40;;;;;;;46.80;23.70;;;;;;;1.45;67.75;100058.33;105342;1266;96760;-70
2023/02/16 00:16:20;;;;;;;48.10;25.30;;;;;;;1.37;67.88;100055.16;105229;1261;109927;-69
2023/02/16 00:18:49;;;;;;;45.90;25.90;;;;;;;1.34;67.89;100049.80;105434;1264;100828;-69
2023/02/16 00:21:17;;;;;;;46.60;24.00;;;;;;;1.31;67.91;100047.92;105244;1270;107228;-69
2023/02/16 00:23:47;;;;;;;49.80;25.40;;;;;;;1.29;68.12;100043.77;105298;1259;97942;-69
2023/02/16 00:26:24;;;;;;;40.20;20.10;;;;;;;1.27;67.93;100045.71;105525;1256;97118;-70
2023/02/16 00:28:54;;;;;;;46.80;24.60;;;;;;;1.28;68.11;100051.13;105535;1254;109373;-69
2023/02/16 00:31:27;;;;;;;46.30;24.10;;;;;;;1.28;68.06;100045.36;105414;1266;100875;-69
2023/02/16 00:33:56;;;;;;;47.10;25.90;;;;;;;1.30;68.28;100047.92;105296;1264;107652;-69
2023/02/16 00:36:25;;;;;;;49.90;26.30;;;;;;;1.30;68.22;100048.29;105292;1252;97836;-69
2023/02/16 00:38:52;;;;;;;45.90;23.60;;;;;;;1.27;68.37;100040.64;105229;1260;97105;-69
2023/02/16 00:44:26;;;;;;;48.10;24.70;;;;;;;1.24;68.14;100031.81;105394;1256;100914;-69
2023/02/16 00:46:55;;;;;;;44.70;23.40;;;;;;;1.21;67.98;100027.50;105232;1255;107286;-69
2023/02/16 00:49:23;;;;;;;47.10;25.40;;;;;;;1.21;67.94;100024.17;105331;1256;97587;-69
2023/02/16 00:51:51;;;;;;;46.70;24.20;;;;;;;1.21;67.81;100015.27;105483;1257;98021;-69
2023/02/16 00:54:19;;;;;;;48.70;25.20;;;;;;;1.22;68.14;100010.89;105484;1256;109924;-69
2023/02/16 00:56:47;;;;;;;50.10;27.30;;;;;;;1.22;68.15;100005.98;105435;1257;100570;-69
2023/02/16 00:59:19;;;;;;;48.20;23.80;;;;;;;1.24;67.95;100007.50;105205;1257;107635;-69
2023/02/16 01:01:48;;;;;;;47.40;25.60;;;;;;;1.27;68.09;99998.18;105294;1264;97849;-69
2023/02/16 01:04:21;;;;;;;50.30;26.40;;;;;;;1.31;68.17;99996.37;105294;1257;96625;-69
2023/02/16 01:12:24;;;;;;;45.80;24.20;;;;;;;1.27;68.55;99991.38;105220;1266;107711;-69
2023/02/16 01:14:54;;;;;;;46.70;25.80;;;;;;;1.24;68.32;99994.58;105197;1264;96629;-68
2023/02/16 01:17:23;;;;;;;44.60;24.30;;;;;;;1.23;68.42;99995.14;105435;1256;97782;-69
2023/02/16 01:19:51;;;;;;;41.50;21.60;;;;;;;1.21;68.07;99992.03;105222;1257;109537;-68
2023/02/16 01:22:19;;;;;;;48.40;24.60;;;;;;;1.21;68.41;99989.06;105403;1251;100523;-69
2023/02/16 01:24:47;;;;;;;45.10;24.30;;;;;;;1.21;68.40;99981.19;105504;1255;107631;-69
2023/02/16 01:27:15;;;;;;;45.90;23.90;;;;;;;1.19;68.17;99978.95;105476;1256;96714;-71
2023/02/16 01:29:43;;;;;;;46.10;23.50;;;;;;;1.18;68.44;99974.95;105198;1264;97042;-71
2023/02/16 01:32:11;;;;;;;46.70;24.10;;;;;;;1.14;68.65;99977.46;105449;1255;109977;-71
2023/02/16 01:34:39;;;;;;;44.60;23.70;;;;;;;1.12;68.12;99968.98;105361;1256;100273;-70
2023/02/16 01:37:14;;;;;;;47.30;25.60;;;;;;;1.08;68.43;99970.44;105385;1267;106176;-69
2023/02/16 01:39:43;;;;;;;45.90;24.90;;;;;;;1.06;68.61;99965.75;105364;1256;96612;-69
2023/02/16 01:42:32;;;;;;;49.50;26.80;;;;;;;1.03;68.33;99962.48;105369;1257;96712;-69
2023/02/16 01:45:31;;;;;;;45.20;24.20;;;;;;;1.05;68.69;99958.61;105190;1257;109988;-70
2023/02/16 01:48:05;;;;;;;48.40;26.10;;;;;;;1.05;68.56;99956.52;105404;1256;100805;-69
2023/02/16 01:50:51;;;;;;;46.10;24.80;;;;;;;1.02;68.44;99949.94;105353;1255;108197;-70
2023/02/16 01:53:29;;;;;;;46.90;24.50;;;;;;;1.04;68.47;99947.09;105511;1257;96605;-69
2023/02/16 01:56:02;;;;;;;48.20;25.00;;;;;;;1.07;68.47;99946.16;105187;1257;97108;-70
2023/02/16 01:58:47;;;;;;;43.70;23.10;;;;;;;1.05;68.44;99943.76;105465;1254;109845;-70
2023/02/16 02:01:40;;;;;;;45.20;23.60;;;;;;;1.06;68.45;99944.98;105328;1264;100881;-70
2023/02/16 02:07:55;;;;;;;47.70;22.90;;;;;;;1.06;68.59;99931.52;105166;1257;96644;-69
2023/02/16 02:10:30;;;;;;;49.70;24.60;;;;;;;1.08;68.62;99928.52;105312;1271;96943;-69
2023/02/16 02:13:02;;;;;;;42.70;24.10;;;;;;;1.10;68.81;99927.95;105268;1254;109906;-70
2023/02/16 02:15:32;;;;;;;51.30;25.50;;;;;;;1.10;68.61;99928.64;105293;1264;100911;-70
2023/02/16 02:18:00;;;;;;;46.60;23.30;;;;;;;1.08;68.84;99926.77;105435;1254;107690;-70
2023/02/16 02:24:01;;;;;;;46.50;24.30;;;;;;;1.08;68.83;99922.05;105373;1257;97119;-70
2023/02/16 02:26:50;;;;;;;46.10;24.20;;;;;;;1.04;68.61;99923.67;105169;1256;110020;-69
2023/02/16 02:29:34;;;;;;;44.90;22.70;;;;;;;1.01;68.50;99922.36;105208;1255;101039;-69
2023/02/16 02:32:33;;;;;;;53.20;25.60;;;;;;;0.97;68.47;99919.12;105320;1257;107592;-70
2023/02/16 02:35:19;;;;;;;47.30;25.30;;;;;;;0.94;68.85;99920.05;105201;1251;96765;-70
2023/02/16 02:37:53;;;;;;;50.10;25.60;;;;;;;0.94;68.62;99914.11;105310;1264;97744;-70
2023/02/16 02:40:27;;;;;;;46.20;24.80;;;;;;;0.93;68.63;99909.59;105312;1254;110551;-69
2023/02/16 02:43:31;;;;;;;51.30;25.50;;;;;;;0.92;68.64;99909.27;105421;1251;99575;-70
2023/02/16 02:46:08;;;;;;;;;;;;;;;0.87;68.78;99908.99;105676;1257;107311;-70
2023/02/16 02:48:36;;;;;;;49.60;25.20;;;;;;;0.88;69.23;99908.27;108783;1251;94443;-70
2023/02/16 03:02:49;;;;;;;48.40;24.80;;;;;;;0.84;68.83;99898.41;105185;1257;96652;-69
2023/02/16 03:05:21;;;;;;;47.20;25.00;;;;;;;0.81;68.67;99897.24;105352;1251;97653;-70
2023/02/16 03:07:56;;;;;;;45.00;24.40;;;;;;;0.80;68.82;99900.77;105186;1257;110002;-70
2023/02/16 03:13:19;;;;;;;46.00;23.30;;;;;;;0.76;68.71;99898.23;105263;1274;107083;-69
2023/02/16 03:15:48;;;;;;;;;;;;;;;0.78;68.92;99895.39;105368;1256;97880;-69
2023/02/16 03:29:27;;;;;;;48.20;25.70;;;;;;;0.63;69.23;99883.95;105450;1257;96645;-69
2023/02/16 03:31:56;;;;;;;47.30;24.20;;;;;;;0.60;69.18;99878.08;105447;1251;97095;-71
2023/02/16 03:34:25;;;;;;;47.10;23.70;;;;;;;0.59;69.29;99877.75;105363;1251;109864;-70
2023/02/16 03:36:57;;;;;;;48.60;25.40;;;;;;;0.62;69.09;99877.19;105399;1255;100844;-70
2023/02/16 03:39:27;;;;;;;48.80;25.80;;;;;;;0.64;69.05;99876.45;105185;1257;107628;-69
2023/02/16 03:41:57;;;;;;;50.80;26.00;;;;;;;0.63;69.34;99880.64;105375;1251;96671;-70
2023/02/16 03:44:25;;;;;;;51.80;26.00;;;;;;;0.63;69.24;99877.86;105250;1251;97343;-69
2023/02/16 03:46:53;;;;;;;48.40;25.60;;;;;;;0.63;69.12;99879.59;105478;1254;108269;-70
2023/02/16 03:49:21;;;;;;;49.00;25.50;;;;;;;0.62;69.07;99878.92;105381;1254;101030;-70
2023/02/16 03:51:49;;;;;;;48.00;24.70;;;;;;;0.65;69.19;99878.87;105183;1265;107047;-69
2023/02/16 03:54:17;;;;;;;51.90;26.00;;;;;;;0.64;69.26;99881.33;105200;1256;96603;-70
2023/02/16 03:56:45;;;;;;;49.70;26.50;;;;;;;0.63;69.16;99881.34;105415;1254;96984;-69
2023/02/16 03:59:13;;;;;;;45.50;23.50;;;;;;;0.63;69.25;99879.77;105234;1265;109904;-69
2023/02/16 04:01:41;;;;;;;47.90;26.10;;;;;;;0.62;69.29;99879.64;105438;1251;100285;-70
2023/02/16 04:04:09;;;;;;;49.00;27.00;;;;;;;0.61;69.38;99872.67;105401;1256;107056;-70
2023/02/16 04:06:37;;;;;;;49.60;25.90;;;;;;;0.61;69.28;99877.04;105233;1254;96657;-69
2023/02/16 04:09:05;;;;;;;48.20;25.00;;;;;;;0.61;69.48;99877.90;105278;1251;96729;-70
2023/02/16 04:14:19;;;;;;;49.00;26.20;;;;;;;0.54;69.36;99872.27;105441;1254;101021;-69
2023/02/16 04:16:47;;;;;;;44.90;25.10;;;;;;;0.49;69.46;99872.55;105461;1255;106782;-71
2023/02/16 04:19:15;;;;;;;51.20;26.40;;;;;;;0.47;69.49;99874.14;105409;1266;96615;-69
2023/02/16 04:21:43;;;;;;;50.80;27.40;;;;;;;0.47;69.70;99871.52;105179;1254;98030;-68
2023/02/16 04:24:11;;;;;;;47.80;26.20;;;;;;;0.48;69.64;99869.41;105220;1270;109869;-69
2023/02/16 04:26:39;;;;;;;51.70;27.60;;;;;;;0.47;69.46;99874.31;105238;1254;100881;-69
2023/02/16 04:29:06;;;;;;;49.80;27.00;;;;;;;0.43;69.48;99873.16;105409;1254;107583;-69
2023/02/16 04:31:34;;;;;;;52.10;28.00;;;;;;;0.41;69.58;99872.67;105468;1251;97902;-69
2023/02/16 04:34:02;;;;;;;52.30;27.80;;;;;;;0.38;69.60;99873.77;105244;1251;97175;-69
2023/02/16 04:36:30;;;;;;;49.40;26.80;;;;;;;0.36;69.41;99872.23;105352;1254;109905;-69
2023/02/16 04:38:58;;;;;;;51.20;25.80;;;;;;;0.36;69.40;99869.29;105375;1256;100916;-70
2023/02/16 04:41:26;;;;;;;49.40;24.80;;;;;;;0.35;69.41;99863.73;105266;1262;107501;-69
2023/02/16 04:43:53;;;;;;;52.40;26.30;;;;;;;0.35;69.56;99863.88;105505;1254;97950;-70
2023/02/16 04:46:21;;;;;;;51.00;25.90;;;;;;;0.33;69.50;99862.52;105662;1254;96699;-70
2023/02/16 04:48:49;;;;;;;48.80;24.90;;;;;;;0.30;69.51;99863.81;105901;1251;109622;-69
2023/02/16 04:51:17;;;;;;;51.30;27.20;;;;;;;0.29;69.58;99863.27;105220;1254;101136;-69
2023/02/16 04:53:45;;;;;;;51.50;27.00;;;;;;;0.32;69.46;99867.77;105489;1257;107597;-70
2023/02/16 04:56:13;;;;;;;50.80;25.60;;;;;;;0.32;69.81;99866.55;105385;1251;97926;-69
2023/02/16 04:58:41;;;;;;;53.80;27.70;;;;;;;0.31;69.53;99865.70;105200;1257;97092;-70
2023/02/16 05:01:21;;;;;;;53.30;27.00;;;;;;;0.30;69.75;99867.83;105488;1252;109345;-69
2023/02/16 05:03:50;;;;;;;49.70;27.20;;;;;;;0.26;69.46;99869.95;105255;1258;101043;-69
2023/02/16 05:06:18;;;;;;;52.50;26.70;;;;;;;0.23;69.63;99866.70;105429;1254;107635;-70
2023/02/16 05:08:46;;;;;;;52.60;28.50;;;;;;;0.21;69.60;99863.77;105302;1257;97477;-69
2023/02/16 05:16:52;;;;;;;53.20;27.60;;;;;;;0.20;69.78;99863.62;105278;1264;101364;-69
2023/02/16 05:19:20;;;;;;;56.70;27.20;;;;;;;0.19;69.66;99858.77;105433;1255;107581;-69
2023/02/16 05:21:48;;;;;;;52.40;26.30;;;;;;;0.19;69.78;99854.77;105410;1254;97063;-70
2023/02/16 05:24:16;;;;;;;55.30;27.00;;;;;;;0.19;69.91;99852.81;105227;1254;97818;-69
2023/02/16 05:26:45;;;;;;;53.50;27.90;;;;;;;0.20;69.65;99856.65;105736;1251;109579;-69
2023/02/16 05:29:12;;;;;;;59.60;27.30;;;;;;;0.19;69.66;99858.24;105150;1254;100980;-70
2023/02/16 05:31:40;;;;;;;55.50;29.50;;;;;;;0.18;69.99;99860.17;105343;1257;107588;-70
2023/02/16 05:34:08;;;;;;;53.40;28.50;;;;;;;0.20;69.66;99859.44;105290;1254;96597;-70
2023/02/16 05:36:36;;;;;;;56.40;27.60;;;;;;;0.21;69.84;99861.51;105475;1254;97099;-71
2023/02/16 05:39:04;;;;;;;49.00;24.60;;;;;;;0.19;69.76;99861.04;105542;1254;109862;-72
2023/02/16 05:41:33;;;;;;;50.90;27.00;;;;;;;0.17;69.75;99864.56;105370;1254;100888;-72
2023/02/16 05:44:02;;;;;;;52.80;27.80;;;;;;;0.17;69.75;99864.38;105608;1253;107737;-72
2023/02/16 05:46:34;;;;;;;51.90;27.10;;;;;;;0.17;69.79;99861.59;106168;1254;96690;-72
2023/02/16 05:49:04;;;;;;;56.80;27.80;;;;;;;0.19;69.86;99858.77;105434;1256;97106;-72
2023/02/16 05:51:32;;;;;;;54.10;26.70;;;;;;;0.18;69.75;99852.15;105366;1265;109622;-72
2023/02/16 05:54:00;;;;;;;55.90;28.00;;;;;;;0.21;69.99;99856.10;105468;1253;100860;-70
2023/02/16 05:56:29;;;;;;;52.10;27.40;;;;;;;0.23;69.84;99857.46;105490;1255;106751;-71
2023/02/16 05:58:59;;;;;;;53.00;27.10;;;;;;;0.24;69.98;99859.19;105343;1257;96603;-70
2023/02/16 06:01:28;;;;;;;53.50;28.20;;;;;;;0.27;70.01;99866.64;105443;1254;97081;-69
2023/02/16 06:03:56;;;;;;;51.10;27.40;;;;;;;0.28;70.03;99865.05;105451;1254;109867;-70
2023/02/16 06:06:24;;;;;;;54.10;28.00;;;;;;;0.28;69.95;99866.60;105420;1254;100913;-69
2023/02/16 06:08:53;;;;;;;53.80;28.10;;;;;;;0.31;69.88;99866.05;105380;1266;105760;-69
2023/02/16 06:11:35;;;;;;;50.00;27.30;;;;;;;0.33;70.20;99864.97;105438;1254;96601;-69
2023/02/16 06:14:07;;;;;;;54.10;27.70;;;;;;;0.36;70.27;99869.98;105249;1250;98270;-69
2023/02/16 06:16:38;;;;;;;51.20;26.10;;;;;;;0.40;70.25;99873.23;105364;1254;110018;-71
2023/02/16 06:19:08;;;;;;;48.60;26.30;;;;;;;0.41;70.55;99873.01;105393;1274;100578;-73
2023/02/16 06:21:37;;;;;;;53.00;27.10;;;;;;;0.42;70.18;99873.36;105290;1253;107285;-74
2023/02/16 06:24:06;;;;;;;46.20;25.30;;;;;;;0.45;70.30;99869.98;105213;1256;96798;-73
2023/02/16 06:26:34;;;;;;;50.20;24.90;;;;;;;0.50;70.29;99869.38;105587;1256;97134;-72
2023/02/16 06:29:03;;;;;;;51.10;28.50;;;;;;;0.55;70.22;99862.13;105571;1253;110028;-72
2023/02/16 06:31:31;;;;;;;61.10;27.50;;;;;;;0.60;70.36;99856.98;105526;1253;99316;-73
2023/02/16 06:34:03;;;;;;;45.70;24.90;;;;;;;0.63;70.32;99859.87;105530;1265;108898;-71
2023/02/16 06:36:33;;;;;;;48.90;26.80;;;;;;;0.65;70.11;99857.91;105410;1257;96754;-70
2023/02/16 06:39:01;;;;;;;54.20;29.20;;;;;;;0.67;70.37;99860.14;105243;1256;97025;-70
2023/02/16 06:41:38;;;;;;;48.10;25.40;;;;;;;0.69;70.37;99858.19;105392;1256;110228;-70
2023/02/16 06:44:13;;;;;;;49.40;25.90;;;;;;;0.74;70.35;99862.11;105265;1257;192905;-70
2023/02/16 06:46:44;;;;;;;51.90;28.40;;;;;;;0.79;70.24;99859.92;105438;1251;107411;-71
2023/02/16 06:49:16;;;;;;;50.00;25.60;;;;;;;0.83;70.46;99860.54;105237;1256;97912;-70
2023/02/16 06:51:46;;;;;;;51.90;27.40;;;;;;;0.87;70.37;99860.27;105386;1251;97114;-71
2023/02/16 06:54:14;;;;;;;48.90;23.70;;;;;;;0.92;70.26;99859.67;105724;1251;109368;-71
2023/02/16 06:56:43;;;;;;;49.80;25.10;;;;;;;0.96;70.22;99861.15;105515;1251;100873;-71
2023/02/16 06:59:12;;;;;;;48.90;24.20;;;;;;;1.01;70.64;99861.08;105752;1251;107610;-71
2023/02/16 07:01:39;;;;;;;46.70;25.20;;;;;;;1.05;70.46;99858.87;105259;1257;96851;-71
2023/02/16 07:04:10;;;;;;;46.70;25.80;;;;;;;1.10;70.36;99853.71;105525;1251;97118;-71
2023/02/16 07:06:38;;;;;;;44.50;22.70;;;;;;;1.15;70.55;99858.66;105475;1250;109894;-71
2023/02/16 07:09:07;;;;;;;47.10;24.40;;;;;;;1.20;70.59;99854.37;105528;1254;100838;-71
2023/02/16 07:11:38;;;;;;;47.70;25.20;;;;;;;1.28;70.89;99856.48;105404;1254;107605;-71
2023/02/16 07:14:06;;;;;;;47.70;24.00;;;;;;;1.33;70.78;99856.35;105559;1254;96628;-71
2023/02/16 07:16:34;;;;;;;47.40;25.00;;;;;;;1.40;70.83;99859.00;105910;1254;96852;-71
2023/02/16 07:19:02;;;;;;;48.70;24.30;;;;;;;1.46;70.73;99864.11;105582;1251;110415;-71
2023/02/16 07:21:30;;;;;;;47.40;24.10;;;;;;;1.52;70.68;99868.87;108860;1251;100394;-72
2023/02/16 07:23:58;;;;;;;48.20;26.10;;;;;;;1.59;70.56;99871.17;108817;1250;107730;-70
2023/02/16 07:26:26;;;;;;;42.70;22.70;;;;;;;1.66;70.68;99866.27;108786;1250;94462;-70
2023/02/16 07:28:54;;;;;;;45.00;24.00;;;;;;;1.74;70.61;99866.79;108835;1250;94354;-71
2023/02/16 07:31:25;;;;;;;44.00;22.20;;;;;;;1.82;70.62;99863.45;108023;1250;109859;-73
2023/02/16 07:33:53;;;;;;;42.50;22.80;;;;;;;1.90;70.58;99859.95;105257;1254;100849;-72
2023/02/16 07:36:20;;;;;;;52.20;28.20;;;;;;;1.98;70.62;99853.46;105311;1264;107643;-72
2023/02/16 07:38:48;;;;;;;48.40;24.80;;;;;;;2.05;70.69;99856.59;105560;1254;97942;-70
2023/02/16 07:41:17;;;;;;;46.80;25.80;;;;;;;2.12;70.65;99858.52;105297;1257;97090;-71
2023/02/16 07:43:45;;;;;;;45.10;24.80;;;;;;;2.19;70.69;99857.48;105257;1254;109374;-71
2023/02/16 07:46:13;;;;;;;46.30;25.20;;;;;;;2.26;70.65;99856.42;105505;1251;101917;-69
2023/02/16 07:48:41;;;;;;;44.30;23.20;;;;;;;2.31;70.89;99855.23;105405;1257;107365;-70
2023/02/16 07:51:09;;;;;;;48.00;25.10;;;;;;;2.37;70.71;99850.70;105354;1254;96819;-71
2023/02/16 07:53:37;;;;;;;45.40;24.30;;;;;;;2.43;70.77;99847.25;105645;1257;97092;-71
2023/02/16 07:56:05;;;;;;;48.00;25.30;;;;;;;2.47;70.68;99849.21;105629;1254;109898;-71
2023/02/16 07:58:33;;;;;;;45.20;23.80;;;;;;;2.53;70.56;99847.83;105513;1253;100905;-71
2023/02/16 08:01:08;;;;;;;43.00;23.20;;;;;;;2.58;70.63;99847.02;105335;1254;107644;-72
2023/02/16 08:03:37;;;;;;;43.90;24.30;;;;;;;2.61;70.41;99851.31;105420;1251;96599;-71
2023/02/16 08:06:07;;;;;;;42.60;23.20;;;;;;;2.64;70.63;99850.02;105508;1253;98193;-70
2023/02/16 08:08:37;;;;;;;46.20;24.80;;;;;;;2.65;70.38;99848.20;105365;1256;109859;-71
2023/02/16 08:11:14;;;;;;;46.20;24.80;;;;;;;2.66;70.54;99849.06;105685;1254;100564;-73
2023/02/16 08:13:43;;;;;;;41.70;22.00;;;;;;;2.68;70.85;99852.15;105462;1256;107216;-72
2023/02/16 08:16:14;;;;;;;46.60;25.10;;;;;;;2.70;70.49;99851.94;105398;1254;97964;-69
2023/02/16 08:18:41;;;;;;;47.10;24.70;;;;;;;2.72;70.73;99852.75;105605;1250;97220;-71
2023/02/16 08:21:18;;;;;;;42.30;22.90;;;;;;;2.75;70.67;99859.33;105804;1254;109355;-73
2023/02/16 08:23:52;;;;;;;45.00;23.50;;;;;;;2.74;70.38;99859.17;106170;1250;100962;-71
2023/02/16 08:26:22;;;;;;;47.20;23.70;;;;;;;2.73;70.70;99862.38;105351;1254;107648;-71
2023/02/16 08:28:51;;;;;;;44.60;23.70;;;;;;;2.73;70.32;99858.16;105217;1253;97830;-71
2023/02/16 08:31:23;;;;;;;43.10;23.10;;;;;;;2.72;70.47;99857.32;105622;1250;97941;-72
2023/02/16 08:33:55;;;;;;;47.00;24.20;;;;;;;2.72;70.19;99853.11;105294;1257;109332;-74
2023/02/16 08:36:28;;;;;;;45.20;23.80;;;;;;;2.73;70.41;99850.62;105390;1255;100637;-70
2023/02/16 08:38:56;;;;;;;45.20;24.90;;;;;;;2.76;70.50;99847.05;105395;1251;106007;-69
2023/02/16 08:41:29;;;;;;;44.70;22.70;;;;;;;2.80;70.46;99854.99;105481;1260;96618;-69
2023/02/16 08:43:59;;;;;;;45.20;24.20;;;;;;;2.86;70.63;99857.27;105687;1252;97079;-70
2023/02/16 08:46:29;;;;;;;45.40;23.70;;;;;;;2.92;70.55;99861.11;105646;1253;109438;-69
2023/02/16 08:48:58;;;;;;;44.80;24.40;;;;;;;3.00;70.61;99860.21;105474;1251;99415;-71
2023/02/16 08:51:30;;;;;;;45.10;23.60;;;;;;;3.06;70.60;99860.74;105378;1267;107584;-71
2023/02/16 08:53:59;;;;;;;48.30;25.50;;;;;;;3.10;70.51;99859.91;105533;1257;96680;-71
2023/02/16 08:56:31;;;;;;;46.30;25.60;;;;;;;3.16;70.47;99854.85;105672;1256;97932;-72
2023/02/16 08:59:00;;;;;;;44.80;23.10;;;;;;;3.22;70.66;99852.91;105614;1256;108462;-71
2023/02/16 09:01:28;;;;;;;42.10;21.60;;;;;;;3.25;70.67;99854.02;105659;1256;100482;-71
2023/02/16 09:03:56;;;;;;;47.80;26.60;;;;;;;3.31;70.57;99853.00;105749;1250;105926;-72
2023/02/16 09:06:24;;;;;;;45.80;23.50;;;;;;;3.34;70.45;99851.85;105495;1264;96539;-72
2023/02/16 09:08:54;;;;;;;44.70;23.40;;;;;;;3.38;70.48;99846.98;105499;1253;97085;-72
2023/02/16 09:11:24;;;;;;;42.70;24.10;;;;;;;3.40;70.48;99849.90;105466;1251;111050;-72
2023/02/16 09:13:52;;;;;;;46.10;25.40;;;;;;;3.41;70.52;99853.21;105890;1251;100850;-70
2023/02/16 09:16:22;;;;;;;46.00;25.70;;;;;;;3.43;70.34;99853.52;105729;1257;107956;-72
2023/02/16 09:18:51;;;;;;;46.40;24.90;;;;;;;3.48;70.58;99850.39;105434;1253;97464;-72
2023/02/16 09:21:24;;;;;;;48.30;25.70;;;;;;;3.51;70.21;99848.88;105458;1255;97928;-72
2023/02/16 09:23:55;;;;;;;43.50;23.00;;;;;;;3.55;70.40;99849.45;105924;1250;110302;-69
2023/02/16 09:26:25;;;;;;;46.70;25.10;;;;;;;3.58;70.21;99846.91;105813;1257;100856;-70
2023/02/16 09:28:53;;;;;;;46.90;23.50;;;;;;;3.63;70.30;99845.71;105782;1250;109182;-69
2023/02/16 09:31:26;;;;;;;48.60;25.30;;;;;;;3.67;70.43;99843.80;105353;1254;97460;-72
2023/02/16 09:33:56;;;;;;;45.20;22.20;;;;;;;3.71;70.32;99846.66;105386;1256;97821;-71
2023/02/16 09:36:24;;;;;;;44.20;24.00;;;;;;;3.77;70.34;99845.98;105204;1254;109901;-71
2023/02/16 09:38:55;;;;;;;48.70;25.60;;;;;;;3.83;70.27;99844.54;105521;1251;100852;-71
2023/02/16 09:41:47;;;;;;;44.40;23.60;;;;;;;3.88;70.18;99845.25;107013;1256;107324;-71
2023/02/16 09:44:24;;;;;;;45.70;25.10;;;;;;;3.94;70.36;99841.54;105717;1253;97400;-71
2023/02/16 09:46:56;;;;;;;46.50;24.30;;;;;;;3.99;70.15;99835.77;105743;1253;98027;-71
2023/02/16 09:49:33;;;;;;;43.10;23.40;;;;;;;3.99;70.11;99831.90;105472;1256;108883;-70
2023/02/16 09:52:08;;;;;;;47.20;25.30;;;;;;;4.02;70.16;99831.65;105626;1254;100859;-70
2023/02/16 09:54:56;;;;;;;48.00;24.90;;;;;;;4.05;70.12;99825.42;105570;1255;107570;-70
2023/02/16 09:57:30;;;;;;;50.20;26.50;;;;;;;4.09;69.92;99829.81;105375;1251;96730;-70
2023/02/16 10:00:15;;;;;;;44.00;23.00;;;;;;;4.15;69.86;99825.92;105195;1256;97223;-70
2023/02/16 10:02:53;;;;;;;43.10;23.60;;;;;;;4.21;70.14;99827.49;105482;1254;109902;-70
2023/02/16 10:05:34;;;;;;;42.80;22.40;;;;;;;4.23;69.80;99825.16;105560;1256;101126;-71
2023/02/16 10:08:15;;;;;;;42.80;22.30;;;;;;;4.23;69.90;99826.38;105395;1255;107651;-71
2023/02/16 10:10:47;;;;;;;48.00;25.20;;;;;;;4.25;70.00;99829.98;105500;1254;97243;-70
2023/02/16 10:13:30;;;;;;;43.90;23.50;;;;;;;4.32;69.94;99826.23;105497;1254;97133;-71
2023/02/16 10:16:01;;;;;;;41.90;21.70;;;;;;;4.35;69.80;99826.48;105645;1251;107884;-69
2023/02/16 10:18:48;;;;;;;48.10;24.90;;;;;;;4.38;69.89;99830.27;105500;1255;100843;-70
2023/02/16 10:21:26;;;;;;;42.10;22.80;;;;;;;4.40;69.65;99829.46;105507;1251;107466;-74
2023/02/16 10:23:59;;;;;;;46.50;24.90;;;;;;;4.43;69.63;99826.23;105453;1251;97883;-70
2023/02/16 10:26:39;;;;;;;46.10;25.50;;;;;;;4.44;69.64;99822.11;105614;1255;96679;-71
2023/02/16 10:29:14;;;;;;;49.00;26.10;;;;;;;4.47;69.69;99820.29;105583;1253;110089;-70
2023/02/16 10:31:47;;;;;;;44.70;22.50;;;;;;;4.51;69.65;99813.46;105260;1254;102300;-70
2023/02/16 10:34:18;;;;;;;42.50;22.10;;;;;;;4.59;69.78;99815.45;105431;1257;107301;-69
2023/02/16 10:37:01;;;;;;;41.30;21.60;;;;;;;4.66;69.65;99812.05;105244;1257;97968;-69
2023/02/16 10:39:42;;;;;;;40.10;20.30;;;;;;;4.71;69.78;99809.05;105447;1253;96952;-70
2023/02/16 10:42:50;;;;;;;44.40;23.30;;;;;;;4.75;69.64;99808.17;105646;1254;108013;-70
2023/02/16 10:45:55;;;;;;;48.00;24.80;;;;;;;4.83;69.56;99798.95;105868;1262;101120;-71
2023/02/16 10:48:23;;;;;;;46.80;23.80;;;;;;;4.90;69.39;99804.30;105330;1258;107218;-71
2023/02/16 10:51:00;;;;;;;45.30;23.20;;;;;;;4.91;69.40;99799.51;105175;1253;97885;-71
2023/02/16 10:53:45;;;;;;;46.50;23.10;;;;;;;4.96;69.31;99796.38;105538;1253;97423;-73
2023/02/16 10:56:29;;;;;;;48.90;22.40;;;;;;;5.00;69.36;99794.97;105301;1257;110588;-75
2023/02/16 10:59:00;;;;;;;47.90;24.30;;;;;;;5.09;69.29;99790.59;105278;1254;100479;-73
2023/02/16 11:01:42;;;;;;;45.80;25.20;;;;;;;5.15;69.26;99790.73;105373;1254;107551;-72
2023/02/16 11:04:29;;;;;;;43.50;22.50;;;;;;;5.19;69.10;99789.34;105126;1256;96605;-71
2023/02/16 11:07:14;;;;;;;42.50;23.40;;;;;;;5.23;69.09;99790.07;105289;1253;97527;-71
2023/02/16 11:09:45;;;;;;;39.80;20.30;;;;;;;5.27;69.11;99787.63;105328;1253;109729;-74
2023/02/16 11:12:22;;;;;;;39.70;21.70;;;;;;;5.30;68.97;99791.05;105331;1257;100666;-74
2023/02/16 11:14:53;;;;;;;36.40;18.70;;;;;;;5.32;68.98;99791.65;105522;1255;107608;-73
2023/02/16 11:17:22;;;;;;;38.30;19.70;;;;;;;5.35;68.89;99785.55;105462;1256;96626;-72
2023/02/16 11:20:00;;;;;;;42.90;21.00;;;;;;;5.40;68.93;99783.08;105522;1256;97315;-72
2023/02/16 11:22:36;;;;;;;41.10;19.80;;;;;;;5.44;68.84;99776.41;105351;1255;110454;-72
2023/02/16 11:25:22;;;;;;;39.30;20.60;;;;;;;5.49;68.75;99775.33;105493;1253;100848;-71
2023/02/16 11:27:54;;;;;;;44.50;22.90;;;;;;;5.54;68.57;99776.01;105371;1257;107130;-71
2023/02/16 11:30:41;;;;;;;42.70;22.20;;;;;;;5.60;68.50;99778.44;105572;1254;96596;-72
2023/02/16 11:33:22;;;;;;;37.00;19.30;;;;;;;5.65;68.44;99778.71;105424;1254;97528;-73
2023/02/16 11:35:50;;;;;;;40.50;21.40;;;;;;;5.70;68.47;99773.77;105199;1264;109891;-72
2023/02/16 11:38:34;;;;;;;40.80;20.50;;;;;;;5.74;68.46;99769.70;105698;1254;101227;-71
2023/02/16 11:41:05;;;;;;;40.30;21.80;;;;;;;5.78;68.30;99769.90;105705;1256;107206;-72
2023/02/16 11:43:36;;;;;;;36.40;20.30;;;;;;;5.78;68.29;99770.24;105479;1254;97849;-72
2023/02/16 11:46:15;;;;;;;41.80;22.20;;;;;;;5.80;68.22;99762.98;105513;1257;97089;-71
2023/02/16 11:48:44;;;;;;;42.10;21.80;;;;;;;5.83;68.28;99767.25;105434;1250;109458;-71
2023/02/16 11:51:14;;;;;;;43.40;22.00;;;;;;;5.85;68.18;99767.71;105604;1254;100531;-72
2023/02/16 11:53:44;;;;;;;38.60;21.50;;;;;;;5.85;68.03;99766.80;105522;1266;106734;-72
2023/02/16 11:56:28;;;;;;;49.40;25.50;;;;;;;5.88;68.05;99766.17;105582;1268;96789;-72
2023/02/16 11:59:20;;;;;;;47.50;26.20;;;;;;;5.91;67.87;99757.76;105955;1251;96596;-71
2023/02/16 12:02:26;;;;;;;43.80;22.30;;;;;;;5.95;67.85;99749.31;105498;1255;110470;-74
2023/02/16 12:05:07;;;;;;;42.30;22.60;;;;;;;5.98;67.78;99742.70;105479;1254;100526;-73
2023/02/16 12:07:39;;;;;;;39.10;21.60;;;;;;;5.99;67.68;99737.02;105479;1254;107226;-73
2023/02/16 12:10:27;;;;;;;47.60;25.80;;;;;;;6.04;67.78;99732.60;105435;1255;96620;-73
2023/02/16 12:13:12;;;;;;;45.70;25.10;;;;;;;6.05;67.53;99730.81;105349;1254;97100;-73
2023/02/16 12:16:15;;;;;;;44.40;23.90;;;;;;;6.05;67.29;99725.36;105343;1257;109345;-73
2023/02/16 12:19:01;;;;;;;42.70;22.60;;;;;;;6.04;67.18;99729.98;105762;1257;100564;-73
2023/02/16 12:21:52;;;;;;;43.10;23.90;;;;;;;6.03;67.42;99724.71;105326;1255;107594;-73
2023/02/16 12:24:40;;;;;;;45.10;25.20;;;;;;;6.07;67.27;99724.00;105696;1251;96618;-72
2023/02/16 12:27:23;;;;;;;39.30;22.10;;;;;;;6.10;67.16;99723.36;105520;1258;96661;-73
2023/02/16 12:29:58;;;;;;;44.00;24.30;;;;;;;6.09;67.00;99722.67;105517;1257;109603;-74